sensor_id;sensor_type;location;lat;lon;timestamp;pressure;altitude;pressure_sealevel;temperature;humidity
50710;BME280;37033;49.994;21.992;2022-07-23T00:01:12;99233.35;;;20.89;67.49
50710;BME280;37033;49.994;21.992;2022-07-23T00:04:02;99238.29;;;20.84;67.63
50710;BME280;37033;49.994;21.992;2022-07-23T00:06:52;99238.93;;;20.80;67.80
50710;BME280;37033;49.994;21.992;2022-07-23T00:09:43;99236.54;;;20.77;68.06
50710;BME280;37033;49.994;21.992;2022-07-23T00:12:33;99235.54;;;20.69;68.33
50710;BME280;37033;49.994;21.992;2022-07-23T00:15:24;99235.95;;;20.65;68.66
50710;BME280;37033;49.994;21.992;2022-07-23T00:18:14;99239.93;;;20.63;68.67
50710;BME280;37033;49.994;21.992;2022-07-23T00:21:04;99238.36;;;20.62;68.64
50710;BME280;37033;49.994;21.992;2022-07-23T00:23:55;99240.44;;;20.57;69.10
50710;BME280;37033;49.994;21.992;2022-07-23T00:26:45;99241.84;;;20.48;69.20
50710;BME280;37033;49.994;21.992;2022-07-23T00:29:36;99241.42;;;20.45;69.18
50710;BME280;37033;49.994;21.992;2022-07-23T00:32:26;99240.77;;;20.43;69.22
50710;BME280;37033;49.994;21.992;2022-07-23T00:35:19;99244.73;;;20.37;69.52
50710;BME280;37033;49.994;21.992;2022-07-23T00:38:10;99245.79;;;20.32;69.71
50710;BME280;37033;49.994;21.992;2022-07-23T00:41:01;99242.27;;;20.28;69.55
50710;BME280;37033;49.994;21.992;2022-07-23T00:43:51;99247.85;;;20.26;69.42
50710;BME280;37033;49.994;21.992;2022-07-23T00:46:47;99247.96;;;20.24;69.37
50710;BME280;37033;49.994;21.992;2022-07-23T00:49:39;99249.11;;;20.22;69.16
50710;BME280;37033;49.994;21.992;2022-07-23T00:52:29;99248.73;;;20.21;69.10
50710;BME280;37033;49.994;21.992;2022-07-23T00:55:19;99245.27;;;20.17;69.23
50710;BME280;37033;49.994;21.992;2022-07-23T00:58:10;99247.27;;;20.12;69.10
50710;BME280;37033;49.994;21.992;2022-07-23T01:01:01;99248.23;;;20.08;69.23
50710;BME280;37033;49.994;21.992;2022-07-23T01:03:52;99248.59;;;20.04;68.90
50710;BME280;37033;49.994;21.992;2022-07-23T01:06:44;99245.83;;;20.02;68.93
50710;BME280;37033;49.994;21.992;2022-07-23T01:09:35;99247.65;;;19.99;68.87
50710;BME280;37033;49.994;21.992;2022-07-23T01:12:26;99250.03;;;19.98;68.92
50710;BME280;37033;49.994;21.992;2022-07-23T01:15:17;99250.13;;;19.97;68.79
50710;BME280;37033;49.994;21.992;2022-07-23T01:18:08;99245.88;;;19.94;68.97
50710;BME280;37033;49.994;21.992;2022-07-23T01:21:01;99251.90;;;19.90;69.07
50710;BME280;37033;49.994;21.992;2022-07-23T01:23:51;99251.36;;;19.88;69.11
50710;BME280;37033;49.994;21.992;2022-07-23T01:26:45;99250.70;;;19.85;69.28
50710;BME280;37033;49.994;21.992;2022-07-23T01:29:36;99246.89;;;19.82;69.38
50710;BME280;37033;49.994;21.992;2022-07-23T01:32:27;99247.54;;;19.80;69.40
50710;BME280;37033;49.994;21.992;2022-07-23T01:35:18;99246.09;;;19.77;69.56
50710;BME280;37033;49.994;21.992;2022-07-23T01:38:08;99242.40;;;19.75;69.58
50710;BME280;37033;49.994;21.992;2022-07-23T01:40:59;99247.91;;;19.71;69.82
50710;BME280;37033;49.994;21.992;2022-07-23T01:43:49;99247.91;;;19.68;69.95
50710;BME280;37033;49.994;21.992;2022-07-23T01:46:41;99253.80;;;19.65;69.93
50710;BME280;37033;49.994;21.992;2022-07-23T01:49:31;99250.66;;;19.63;70.17
50710;BME280;37033;49.994;21.992;2022-07-23T01:52:21;99244.42;;;19.60;70.30
50710;BME280;37033;49.994;21.992;2022-07-23T01:55:12;99239.20;;;19.55;70.48
50710;BME280;37033;49.994;21.992;2022-07-23T01:58:02;99239.92;;;19.50;70.55
50710;BME280;37033;49.994;21.992;2022-07-23T02:00:54;99246.52;;;19.44;70.80
50710;BME280;37033;49.994;21.992;2022-07-23T02:03:44;99247.98;;;19.37;70.66
50710;BME280;37033;49.994;21.992;2022-07-23T02:06:34;99244.64;;;19.30;70.83
50710;BME280;37033;49.994;21.992;2022-07-23T02:09:25;99243.48;;;19.25;70.81
50710;BME280;37033;49.994;21.992;2022-07-23T02:12:15;99241.56;;;19.20;70.75
50710;BME280;37033;49.994;21.992;2022-07-23T02:15:08;99238.63;;;19.18;70.91
50710;BME280;37033;49.994;21.992;2022-07-23T02:17:58;99237.77;;;19.16;71.02
50710;BME280;37033;49.994;21.992;2022-07-23T02:20:49;99237.97;;;19.14;71.14
50710;BME280;37033;49.994;21.992;2022-07-23T02:23:39;99234.25;;;19.12;71.21
50710;BME280;37033;49.994;21.992;2022-07-23T02:26:29;99242.42;;;19.11;71.26
50710;BME280;37033;49.994;21.992;2022-07-23T02:29:20;99241.55;;;19.08;71.32
50710;BME280;37033;49.994;21.992;2022-07-23T02:32:11;99240.39;;;19.05;71.42
50710;BME280;37033;49.994;21.992;2022-07-23T02:35:01;99244.14;;;19.01;71.52
50710;BME280;37033;49.994;21.992;2022-07-23T02:37:52;99246.09;;;19.00;71.59
50710;BME280;37033;49.994;21.992;2022-07-23T02:40:43;99244.70;;;18.98;71.65
50710;BME280;37033;49.994;21.992;2022-07-23T02:43:33;99247.05;;;18.95;71.70
50710;BME280;37033;49.994;21.992;2022-07-23T02:46:24;99246.69;;;18.90;71.80
50710;BME280;37033;49.994;21.992;2022-07-23T02:49:14;99241.56;;;18.84;72.05
50710;BME280;37033;49.994;21.992;2022-07-23T02:52:05;99247.59;;;18.77;72.01
50710;BME280;37033;49.994;21.992;2022-07-23T02:54:56;99246.11;;;18.72;72.14
50710;BME280;37033;49.994;21.992;2022-07-23T02:57:46;99247.33;;;18.68;72.08
50710;BME280;37033;49.994;21.992;2022-07-23T03:00:36;99244.87;;;18.63;72.23
50710;BME280;37033;49.994;21.992;2022-07-23T03:03:27;99249.98;;;18.60;72.27
50710;BME280;37033;49.994;21.992;2022-07-23T03:06:18;99247.47;;;18.60;72.23
50710;BME280;37033;49.994;21.992;2022-07-23T03:09:08;99251.98;;;18.60;72.27
50710;BME280;37033;49.994;21.992;2022-07-23T03:11:59;99249.04;;;18.61;72.32
50710;BME280;37033;49.994;21.992;2022-07-23T03:14:49;99246.45;;;18.61;72.33
50710;BME280;37033;49.994;21.992;2022-07-23T03:17:39;99246.72;;;18.62;72.37
50710;BME280;37033;49.994;21.992;2022-07-23T03:20:29;99247.30;;;18.62;72.45
50710;BME280;37033;49.994;21.992;2022-07-23T03:23:20;99245.72;;;18.62;72.41
50710;BME280;37033;49.994;21.992;2022-07-23T03:26:10;99246.06;;;18.61;72.51
50710;BME280;37033;49.994;21.992;2022-07-23T03:29:01;99252.38;;;18.60;72.56
50710;BME280;37033;49.994;21.992;2022-07-23T03:31:51;99253.04;;;18.58;72.64
50710;BME280;37033;49.994;21.992;2022-07-23T03:34:42;99254.35;;;18.55;73.06
50710;BME280;37033;49.994;21.992;2022-07-23T03:37:32;99253.36;;;18.55;73.04
50710;BME280;37033;49.994;21.992;2022-07-23T03:40:22;99257.75;;;18.56;73.13
50710;BME280;37033;49.994;21.992;2022-07-23T03:43:12;99258.25;;;18.56;73.31
50710;BME280;37033;49.994;21.992;2022-07-23T03:46:03;99256.56;;;18.57;73.47
50710;BME280;37033;49.994;21.992;2022-07-23T03:48:53;99257.51;;;18.58;73.62
50710;BME280;37033;49.994;21.992;2022-07-23T03:51:43;99255.27;;;18.60;73.47
50710;BME280;37033;49.994;21.992;2022-07-23T03:54:34;99252.64;;;18.63;73.47
50710;BME280;37033;49.994;21.992;2022-07-23T03:57:24;99251.49;;;18.65;73.34
50710;BME280;37033;49.994;21.992;2022-07-23T04:00:16;99250.42;;;18.67;73.15
50710;BME280;37033;49.994;21.992;2022-07-23T04:03:07;99252.16;;;18.69;73.08
50710;BME280;37033;49.994;21.992;2022-07-23T04:05:57;99250.89;;;18.72;73.04
50710;BME280;37033;49.994;21.992;2022-07-23T04:08:47;99252.72;;;18.75;72.84
50710;BME280;37033;49.994;21.992;2022-07-23T04:11:37;99249.87;;;18.80;72.90
50710;BME280;37033;49.994;21.992;2022-07-23T04:14:28;99252.34;;;18.85;72.76
50710;BME280;37033;49.994;21.992;2022-07-23T04:17:18;99259.08;;;18.90;72.68
50710;BME280;37033;49.994;21.992;2022-07-23T04:20:11;99261.50;;;18.97;72.65
50710;BME280;37033;49.994;21.992;2022-07-23T04:23:02;99260.59;;;19.09;72.56
50710;BME280;37033;49.994;21.992;2022-07-23T04:25:52;99263.95;;;19.22;72.43
50710;BME280;37033;49.994;21.992;2022-07-23T04:28:43;99259.09;;;19.36;72.26
50710;BME280;37033;49.994;21.992;2022-07-23T04:31:33;99259.27;;;19.47;72.00
50710;BME280;37033;49.994;21.992;2022-07-23T04:34:24;99263.77;;;19.58;71.68
50710;BME280;37033;49.994;21.992;2022-07-23T04:37:15;99262.59;;;19.64;71.47
50710;BME280;37033;49.994;21.992;2022-07-23T04:40:07;99260.48;;;19.67;71.20
50710;BME280;37033;49.994;21.992;2022-07-23T04:42:58;99263.25;;;19.70;70.99
50710;BME280;37033;49.994;21.992;2022-07-23T04:45:48;99267.01;;;19.71;70.84
50710;BME280;37033;49.994;21.992;2022-07-23T04:48:39;99270.54;;;19.75;70.86
50710;BME280;37033;49.994;21.992;2022-07-23T04:51:31;99269.86;;;19.78;70.80
50710;BME280;37033;49.994;21.992;2022-07-23T04:54:21;99273.81;;;19.82;70.82
50710;BME280;37033;49.994;21.992;2022-07-23T04:57:11;99271.42;;;19.86;70.74
50710;BME280;37033;49.994;21.992;2022-07-23T05:00:02;99268.42;;;19.97;70.76
50710;BME280;37033;49.994;21.992;2022-07-23T05:02:52;99266.77;;;20.09;70.43
50710;BME280;37033;49.994;21.992;2022-07-23T05:05:44;99268.86;;;20.25;70.03
50710;BME280;37033;49.994;21.992;2022-07-23T05:08:35;99267.75;;;20.40;69.71
50710;BME280;37033;49.994;21.992;2022-07-23T05:11:25;99267.29;;;20.57;69.47
50710;BME280;37033;49.994;21.992;2022-07-23T05:14:16;99265.11;;;20.75;69.28
50710;BME280;37033;49.994;21.992;2022-07-23T05:17:06;99264.01;;;20.94;68.92
50710;BME280;37033;49.994;21.992;2022-07-23T05:19:57;99259.69;;;21.11;68.43
50710;BME280;37033;49.994;21.992;2022-07-23T05:22:47;99260.45;;;21.26;67.98
50710;BME280;37033;49.994;21.992;2022-07-23T05:25:37;99255.98;;;21.42;67.70
50710;BME280;37033;49.994;21.992;2022-07-23T05:28:27;99260.77;;;21.60;67.43
50710;BME280;37033;49.994;21.992;2022-07-23T05:31:17;99255.94;;;21.80;67.49
50710;BME280;37033;49.994;21.992;2022-07-23T05:34:08;99260.87;;;22.04;66.97
50710;BME280;37033;49.994;21.992;2022-07-23T05:36:58;99262.39;;;22.27;66.46
50710;BME280;37033;49.994;21.992;2022-07-23T05:39:49;99257.51;;;22.45;66.08
50710;BME280;37033;49.994;21.992;2022-07-23T05:42:40;99262.19;;;22.64;65.66
50710;BME280;37033;49.994;21.992;2022-07-23T05:45:31;99259.95;;;22.85;65.29
50710;BME280;37033;49.994;21.992;2022-07-23T05:48:21;99257.95;;;23.03;64.62
50710;BME280;37033;49.994;21.992;2022-07-23T05:51:12;99256.88;;;23.22;63.92
50710;BME280;37033;49.994;21.992;2022-07-23T05:54:03;99258.18;;;23.37;63.10
50710;BME280;37033;49.994;21.992;2022-07-23T05:56:53;99255.29;;;23.53;62.89
50710;BME280;37033;49.994;21.992;2022-07-23T05:59:43;99252.80;;;23.69;62.59
50710;BME280;37033;49.994;21.992;2022-07-23T06:02:34;99254.45;;;23.85;62.30
50710;BME280;37033;49.994;21.992;2022-07-23T06:05:24;99251.41;;;24.06;61.96
50710;BME280;37033;49.994;21.992;2022-07-23T06:08:15;99252.84;;;24.24;61.43
50710;BME280;37033;49.994;21.992;2022-07-23T06:11:05;99250.65;;;24.39;61.07
50710;BME280;37033;49.994;21.992;2022-07-23T06:13:55;99250.39;;;24.61;61.00
50710;BME280;37033;49.994;21.992;2022-07-23T06:16:46;99248.92;;;24.81;60.06
50710;BME280;37033;49.994;21.992;2022-07-23T06:19:36;99241.73;;;25.04;60.33
50710;BME280;37033;49.994;21.992;2022-07-23T06:22:26;99238.26;;;25.22;59.67
50710;BME280;37033;49.994;21.992;2022-07-23T06:25:17;99238.50;;;25.42;59.30
50710;BME280;37033;49.994;21.992;2022-07-23T06:28:08;99235.08;;;25.58;58.59
50710;BME280;37033;49.994;21.992;2022-07-23T06:30:59;99239.44;;;25.70;57.78
50710;BME280;37033;49.994;21.992;2022-07-23T06:33:49;99241.80;;;25.81;57.57
50710;BME280;37033;49.994;21.992;2022-07-23T06:36:39;99236.64;;;25.93;57.92
50710;BME280;37033;49.994;21.992;2022-07-23T06:39:30;99237.80;;;26.12;57.36
50710;BME280;37033;49.994;21.992;2022-07-23T06:42:20;99236.40;;;26.23;56.82
50710;BME280;37033;49.994;21.992;2022-07-23T06:45:11;99241.98;;;26.33;56.81
50710;BME280;37033;49.994;21.992;2022-07-23T06:48:02;99245.73;;;26.47;56.21
50710;BME280;37033;49.994;21.992;2022-07-23T06:50:53;99243.58;;;26.62;56.44
50710;BME280;37033;49.994;21.992;2022-07-23T06:53:43;99243.64;;;26.91;56.55
50710;BME280;37033;49.994;21.992;2022-07-23T06:56:33;99242.59;;;27.16;55.50
50710;BME280;37033;49.994;21.992;2022-07-23T06:59:23;99238.90;;;27.35;55.22
50710;BME280;37033;49.994;21.992;2022-07-23T07:02:14;99236.06;;;27.61;55.12
50710;BME280;37033;49.994;21.992;2022-07-23T07:05:05;99231.23;;;27.90;55.33
50710;BME280;37033;49.994;21.992;2022-07-23T07:07:56;99230.48;;;28.18;54.92
50710;BME280;37033;49.994;21.992;2022-07-23T07:10:47;99226.92;;;28.48;53.73
50710;BME280;37033;49.994;21.992;2022-07-23T07:13:37;99225.81;;;28.63;52.95
50710;BME280;37033;49.994;21.992;2022-07-23T07:16:28;99223.09;;;28.81;53.13
50710;BME280;37033;49.994;21.992;2022-07-23T07:19:18;99224.42;;;29.08;52.74
50710;BME280;37033;49.994;21.992;2022-07-23T07:22:09;99223.05;;;29.36;52.57
50710;BME280;37033;49.994;21.992;2022-07-23T07:25:00;99221.91;;;29.67;51.81
50710;BME280;37033;49.994;21.992;2022-07-23T07:27:50;99218.27;;;29.92;50.92
50710;BME280;37033;49.994;21.992;2022-07-23T07:30:40;99215.06;;;30.23;50.69
50710;BME280;37033;49.994;21.992;2022-07-23T07:33:31;99214.84;;;30.45;49.60
50710;BME280;37033;49.994;21.992;2022-07-23T07:36:22;99213.83;;;30.48;49.24
50710;BME280;37033;49.994;21.992;2022-07-23T07:39:12;99209.30;;;30.63;49.27
50710;BME280;37033;49.994;21.992;2022-07-23T07:42:03;99208.83;;;30.88;49.03
50710;BME280;37033;49.994;21.992;2022-07-23T07:44:53;99210.91;;;31.16;48.68
50710;BME280;37033;49.994;21.992;2022-07-23T07:47:44;99209.52;;;31.37;47.54
50710;BME280;37033;49.994;21.992;2022-07-23T07:50:34;99207.35;;;31.51;46.94
50710;BME280;37033;49.994;21.992;2022-07-23T07:53:25;99211.98;;;31.66;47.17
50710;BME280;37033;49.994;21.992;2022-07-23T07:56:15;99214.40;;;32.06;47.17
50710;BME280;37033;49.994;21.992;2022-07-23T07:59:05;99213.21;;;32.33;45.49
50710;BME280;37033;49.994;21.992;2022-07-23T08:01:55;99210.79;;;32.32;45.22
50710;BME280;37033;49.994;21.992;2022-07-23T08:04:46;99210.91;;;32.40;44.58
50710;BME280;37033;49.994;21.992;2022-07-23T08:07:37;99208.17;;;32.53;44.60
50710;BME280;37033;49.994;21.992;2022-07-23T08:10:29;99208.27;;;32.64;44.30
50710;BME280;37033;49.994;21.992;2022-07-23T08:13:20;99209.83;;;32.97;43.77
50710;BME280;37033;49.994;21.992;2022-07-23T08:16:10;99210.02;;;33.24;43.47
50710;BME280;37033;49.994;21.992;2022-07-23T08:19:01;99208.94;;;33.58;42.85
50710;BME280;37033;49.994;21.992;2022-07-23T08:21:51;99214.44;;;33.69;41.79
50710;BME280;37033;49.994;21.992;2022-07-23T08:24:41;99215.64;;;33.85;41.91
50710;BME280;37033;49.994;21.992;2022-07-23T08:27:32;99215.70;;;34.05;41.22
50710;BME280;37033;49.994;21.992;2022-07-23T08:30:22;99212.98;;;34.17;40.75
50710;BME280;37033;49.994;21.992;2022-07-23T08:33:15;99214.63;;;34.36;40.90
50710;BME280;37033;49.994;21.992;2022-07-23T08:36:06;99210.89;;;34.46;40.38
50710;BME280;37033;49.994;21.992;2022-07-23T08:38:57;99206.04;;;34.78;40.83
50710;BME280;37033;49.994;21.992;2022-07-23T08:41:48;99205.89;;;34.92;39.45
50710;BME280;37033;49.994;21.992;2022-07-23T08:44:42;99204.06;;;34.88;38.55
50710;BME280;37033;49.994;21.992;2022-07-23T08:47:34;99205.03;;;34.87;38.68
50710;BME280;37033;49.994;21.992;2022-07-23T08:50:26;99202.59;;;34.89;38.73
50710;BME280;37033;49.994;21.992;2022-07-23T08:53:18;99200.89;;;34.92;38.45
50710;BME280;37033;49.994;21.992;2022-07-23T08:56:10;99199.89;;;35.16;38.84
50710;BME280;37033;49.994;21.992;2022-07-23T08:59:01;99197.77;;;35.32;38.49
50710;BME280;37033;49.994;21.992;2022-07-23T09:01:51;99193.45;;;35.59;38.15
50710;BME280;37033;49.994;21.992;2022-07-23T09:04:41;99190.95;;;35.82;37.01
50710;BME280;37033;49.994;21.992;2022-07-23T09:07:31;99189.41;;;35.81;35.98
50710;BME280;37033;49.994;21.992;2022-07-23T09:10:21;99185.45;;;35.72;35.15
50710;BME280;37033;49.994;21.992;2022-07-23T09:13:24;99179.88;;;35.90;35.96
50710;BME280;37033;49.994;21.992;2022-07-23T09:16:18;99176.95;;;36.17;35.93
50710;BME280;37033;49.994;21.992;2022-07-23T09:19:09;99172.68;;;36.38;35.30
50710;BME280;37033;49.994;21.992;2022-07-23T09:22:18;99169.20;;;36.73;35.38
50710;BME280;37033;49.994;21.992;2022-07-23T09:25:11;99164.66;;;37.03;35.07
50710;BME280;37033;49.994;21.992;2022-07-23T09:28:00;99161.61;;;37.13;33.30
50710;BME280;37033;49.994;21.992;2022-07-23T09:30:52;99161.85;;;37.20;32.78
50710;BME280;37033;49.994;21.992;2022-07-23T09:33:42;99157.67;;;37.28;33.03
50710;BME280;37033;49.994;21.992;2022-07-23T09:36:32;99157.55;;;37.90;33.83
50710;BME280;37033;49.994;21.992;2022-07-23T09:39:29;99154.11;;;38.35;30.85
50710;BME280;37033;49.994;21.992;2022-07-23T09:42:21;99155.17;;;38.09;27.77
50710;BME280;37033;49.994;21.992;2022-07-23T09:45:12;99153.95;;;37.87;28.70
50710;BME280;37033;49.994;21.992;2022-07-23T09:48:14;99153.24;;;37.62;28.24
50710;BME280;37033;49.994;21.992;2022-07-23T09:51:06;99153.63;;;37.33;27.75
50710;BME280;37033;49.994;21.992;2022-07-23T09:53:57;99152.58;;;37.33;29.26
50710;BME280;37033;49.994;21.992;2022-07-23T09:56:48;99155.96;;;37.66;28.19
50710;BME280;37033;49.994;21.992;2022-07-23T09:59:40;99158.35;;;37.73;30.12
50710;BME280;37033;49.994;21.992;2022-07-23T10:02:33;99155.95;;;38.25;29.52
50710;BME280;37033;49.994;21.992;2022-07-23T10:05:24;99155.52;;;38.54;29.47
50710;BME280;37033;49.994;21.992;2022-07-23T10:08:18;99150.42;;;38.70;28.83
50710;BME280;37033;49.994;21.992;2022-07-23T10:11:10;99144.52;;;38.87;29.32
50710;BME280;37033;49.994;21.992;2022-07-23T10:14:02;99139.36;;;39.07;28.09
50710;BME280;37033;49.994;21.992;2022-07-23T10:16:54;99144.08;;;38.78;28.15
50710;BME280;37033;49.994;21.992;2022-07-23T10:19:45;99148.73;;;38.41;27.60
50710;BME280;37033;49.994;21.992;2022-07-23T10:22:38;99150.73;;;37.99;28.40
50710;BME280;37033;49.994;21.992;2022-07-23T10:25:35;99148.52;;;37.74;28.53
50710;BME280;37033;49.994;21.992;2022-07-23T10:28:42;99146.86;;;37.72;28.47
50710;BME280;37033;49.994;21.992;2022-07-23T10:31:56;99143.64;;;37.66;28.98
50710;BME280;37033;49.994;21.992;2022-07-23T10:34:54;99141.38;;;37.65;29.26
50710;BME280;37033;49.994;21.992;2022-07-23T10:37:47;99134.14;;;37.98;28.67
50710;BME280;37033;49.994;21.992;2022-07-23T10:40:55;99134.74;;;37.78;28.62
50710;BME280;37033;49.994;21.992;2022-07-23T10:43:46;99128.33;;;37.92;29.27
50710;BME280;37033;49.994;21.992;2022-07-23T10:46:59;99130.52;;;38.01;29.05
50710;BME280;37033;49.994;21.992;2022-07-23T10:50:20;99131.46;;;38.23;29.22
50710;BME280;37033;49.994;21.992;2022-07-23T10:53:16;99134.77;;;38.37;28.25
50710;BME280;37033;49.994;21.992;2022-07-23T10:56:07;99135.14;;;38.27;28.02
50710;BME280;37033;49.994;21.992;2022-07-23T10:59:04;99130.81;;;38.15;28.63
50710;BME280;37033;49.994;21.992;2022-07-23T11:01:55;99128.83;;;38.58;28.71
50710;BME280;37033;49.994;21.992;2022-07-23T11:05:08;99121.66;;;38.88;28.43
50710;BME280;37033;49.994;21.992;2022-07-23T11:08:19;99128.61;;;39.49;28.33
50710;BME280;37033;49.994;21.992;2022-07-23T11:11:13;99130.80;;;39.81;27.20
50710;BME280;37033;49.994;21.992;2022-07-23T11:14:03;99127.29;;;39.81;27.44
50710;BME280;37033;49.994;21.992;2022-07-23T11:16:56;99119.96;;;39.85;26.87
50710;BME280;37033;49.994;21.992;2022-07-23T11:20:15;99118.01;;;39.67;25.95
50710;BME280;37033;49.994;21.992;2022-07-23T11:23:06;99113.98;;;39.22;26.65
50710;BME280;37033;49.994;21.992;2022-07-23T11:25:56;99108.36;;;39.17;26.83
50710;BME280;37033;49.994;21.992;2022-07-23T11:28:47;99104.36;;;39.27;26.76
50710;BME280;37033;49.994;21.992;2022-07-23T11:31:38;99100.38;;;39.24;26.33
50710;BME280;37033;49.994;21.992;2022-07-23T11:34:43;99093.84;;;39.09;26.32
50710;BME280;37033;49.994;21.992;2022-07-23T11:37:37;99093.67;;;39.10;26.87
50710;BME280;37033;49.994;21.992;2022-07-23T11:40:28;99095.98;;;39.48;26.55
50710;BME280;37033;49.994;21.992;2022-07-23T11:43:19;99091.63;;;39.46;26.19
50710;BME280;37033;49.994;21.992;2022-07-23T11:46:11;99082.20;;;39.30;26.72
50710;BME280;37033;49.994;21.992;2022-07-23T11:49:04;99084.06;;;39.47;26.06
50710;BME280;37033;49.994;21.992;2022-07-23T11:52:06;99078.30;;;39.36;26.46
50710;BME280;37033;49.994;21.992;2022-07-23T11:54:59;99076.41;;;39.27;26.69
50710;BME280;37033;49.994;21.992;2022-07-23T11:57:52;99076.94;;;39.55;26.60
50710;BME280;37033;49.994;21.992;2022-07-23T12:00:43;99075.39;;;39.61;26.08
50710;BME280;37033;49.994;21.992;2022-07-23T12:03:33;99069.36;;;39.71;26.39
50710;BME280;37033;49.994;21.992;2022-07-23T12:06:23;99066.13;;;39.95;26.14
50710;BME280;37033;49.994;21.992;2022-07-23T12:09:14;99059.59;;;39.87;25.87
50710;BME280;37033;49.994;21.992;2022-07-23T12:12:05;99055.63;;;39.89;26.12
50710;BME280;37033;49.994;21.992;2022-07-23T12:14:57;99054.73;;;40.18;25.99
50710;BME280;37033;49.994;21.992;2022-07-23T12:17:49;99055.45;;;40.41;25.61
50710;BME280;37033;49.994;21.992;2022-07-23T12:20:40;99053.70;;;40.50;25.95
50710;BME280;37033;49.994;21.992;2022-07-23T12:23:31;99054.78;;;40.81;24.88
50710;BME280;37033;49.994;21.992;2022-07-23T12:26:22;99048.95;;;40.91;25.38
50710;BME280;37033;49.994;21.992;2022-07-23T12:29:12;99048.28;;;41.40;25.16
50710;BME280;37033;49.994;21.992;2022-07-23T12:32:02;99044.58;;;41.58;23.54
50710;BME280;37033;49.994;21.992;2022-07-23T12:35:07;99047.08;;;41.28;24.15
50710;BME280;37033;49.994;21.992;2022-07-23T12:38:02;99040.14;;;41.18;24.29
50710;BME280;37033;49.994;21.992;2022-07-23T12:40:54;99041.08;;;41.05;24.43
50710;BME280;37033;49.994;21.992;2022-07-23T12:43:46;99041.98;;;41.01;24.00
50710;BME280;37033;49.994;21.992;2022-07-23T12:46:37;99035.76;;;40.75;24.00
50710;BME280;37033;49.994;21.992;2022-07-23T12:49:31;99034.16;;;40.72;23.76
50710;BME280;37033;49.994;21.992;2022-07-23T12:52:21;99032.02;;;40.88;24.07
50710;BME280;37033;49.994;21.992;2022-07-23T12:55:28;99027.67;;;41.23;23.93
50710;BME280;37033;49.994;21.992;2022-07-23T12:58:19;99022.08;;;41.62;24.01
50710;BME280;37033;49.994;21.992;2022-07-23T13:01:10;99021.66;;;41.90;23.16
50710;BME280;37033;49.994;21.992;2022-07-23T13:04:14;99019.46;;;41.80;22.44
50710;BME280;37033;49.994;21.992;2022-07-23T13:07:05;99007.23;;;41.88;22.26
50710;BME280;37033;49.994;21.992;2022-07-23T13:09:55;99004.08;;;41.98;23.04
50710;BME280;37033;49.994;21.992;2022-07-23T13:12:46;98999.48;;;42.33;22.67
50710;BME280;37033;49.994;21.992;2022-07-23T13:15:36;98993.04;;;42.86;22.67
50710;BME280;37033;49.994;21.992;2022-07-23T13:18:28;98989.66;;;43.39;22.07
50710;BME280;37033;49.994;21.992;2022-07-23T13:21:19;98990.02;;;43.31;20.60
50710;BME280;37033;49.994;21.992;2022-07-23T13:24:10;98995.02;;;42.36;20.74
50710;BME280;37033;49.994;21.992;2022-07-23T13:27:01;98996.73;;;42.03;22.05
50710;BME280;37033;49.994;21.992;2022-07-23T13:29:52;98989.83;;;42.10;21.12
50710;BME280;37033;49.994;21.992;2022-07-23T13:32:43;98989.91;;;41.90;21.51
50710;BME280;37033;49.994;21.992;2022-07-23T13:35:36;98985.86;;;41.81;21.69
50710;BME280;37033;49.994;21.992;2022-07-23T13:38:27;98984.55;;;41.45;22.07
50710;BME280;37033;49.994;21.992;2022-07-23T13:41:19;98982.02;;;41.27;21.87
50710;BME280;37033;49.994;21.992;2022-07-23T13:44:09;98980.04;;;41.12;21.90
50710;BME280;37033;49.994;21.992;2022-07-23T13:46:59;98978.73;;;41.52;22.31
50710;BME280;37033;49.994;21.992;2022-07-23T13:49:50;98975.13;;;41.83;21.52
50710;BME280;37033;49.994;21.992;2022-07-23T13:52:40;98970.92;;;41.71;20.86
50710;BME280;37033;49.994;21.992;2022-07-23T13:55:31;98967.80;;;41.79;21.38
50710;BME280;37033;49.994;21.992;2022-07-23T13:58:22;98966.67;;;41.97;21.05
50710;BME280;37033;49.994;21.992;2022-07-23T14:01:13;98965.60;;;41.91;21.08
50710;BME280;37033;49.994;21.992;2022-07-23T14:04:03;98960.10;;;42.21;21.86
50710;BME280;37033;49.994;21.992;2022-07-23T14:06:53;98954.62;;;42.87;21.82
50710;BME280;37033;49.994;21.992;2022-07-23T14:09:44;98952.84;;;43.38;20.62
50710;BME280;37033;49.994;21.992;2022-07-23T14:12:34;98954.05;;;43.08;20.32
50710;BME280;37033;49.994;21.992;2022-07-23T14:15:26;98946.35;;;43.01;20.70
50710;BME280;37033;49.994;21.992;2022-07-23T14:18:17;98947.98;;;43.26;20.87
50710;BME280;37033;49.994;21.992;2022-07-23T14:21:08;98944.44;;;43.61;21.00
50710;BME280;37033;49.994;21.992;2022-07-23T14:23:58;98942.23;;;43.81;20.54
50710;BME280;37033;49.994;21.992;2022-07-23T14:26:48;98937.59;;;43.91;20.24
50710;BME280;37033;49.994;21.992;2022-07-23T14:29:39;98929.91;;;43.82;19.45
50710;BME280;37033;49.994;21.992;2022-07-23T14:32:29;98928.00;;;43.39;19.31
50710;BME280;37033;49.994;21.992;2022-07-23T14:35:19;98915.54;;;42.96;19.90
50710;BME280;37033;49.994;21.992;2022-07-23T14:38:09;98909.14;;;42.96;20.05
50710;BME280;37033;49.994;21.992;2022-07-23T14:40:59;98900.49;;;42.78;19.52
50710;BME280;37033;49.994;21.992;2022-07-23T14:43:50;98896.73;;;42.74;20.65
50710;BME280;37033;49.994;21.992;2022-07-23T14:46:40;98891.16;;;43.18;20.46
50710;BME280;37033;49.994;21.992;2022-07-23T14:49:31;98886.02;;;43.33;19.82
50710;BME280;37033;49.994;21.992;2022-07-23T14:52:22;98879.15;;;43.17;19.33
50710;BME280;37033;49.994;21.992;2022-07-23T14:55:12;98880.41;;;43.14;19.73
50710;BME280;37033;49.994;21.992;2022-07-23T14:58:03;98877.88;;;43.17;19.97